createdAt,value
2023-08-05T00:01:53.678Z,100747.38
2023-08-05T00:04:20.192Z,100756.25
2023-08-05T00:06:46.616Z,100768.81
2023-08-05T00:09:13.077Z,100767.09
2023-08-05T00:11:39.682Z,100760.75
2023-08-05T00:14:06.201Z,100749.19
2023-08-05T00:16:32.760Z,100739.47
2023-08-05T00:19:00.601Z,100728.75
2023-08-05T00:21:27.141Z,100724.25
2023-08-05T00:23:53.628Z,100719.72
2023-08-05T00:26:20.072Z,100725.22
2023-08-05T00:28:46.545Z,100729.59
2023-08-05T00:31:13.107Z,100712.78
2023-08-05T00:33:39.555Z,100710.94
2023-08-05T00:36:07.427Z,100731.53
2023-08-05T00:38:33.925Z,100741.41
2023-08-05T00:41:00.403Z,100740.53
2023-08-05T00:43:26.989Z,100741.41
2023-08-05T00:45:53.587Z,100749.44
2023-08-05T00:48:20.371Z,100727.16
2023-08-05T00:50:47.125Z,100705.81
2023-08-05T00:53:14.989Z,100707.56
2023-08-05T00:55:41.963Z,100705.72
2023-08-05T00:58:08.922Z,100714.59
2023-08-05T01:00:35.447Z,100697.78
2023-08-05T01:03:02.080Z,100690.63
2023-08-05T01:05:29.341Z,100685.28
2023-08-05T01:07:56.078Z,100696.00
2023-08-05T01:10:23.882Z,100695.09
2023-08-05T01:12:50.419Z,100695.09
2023-08-05T01:15:16.991Z,100699.63
2023-08-05T01:17:43.616Z,100705.81
2023-08-05T01:20:12.813Z,100713.00
2023-08-05T01:22:43.092Z,100709.47
2023-08-05T01:25:25.888Z,100706.81
2023-08-05T01:27:53.612Z,100714.00
2023-08-05T01:30:21.028Z,100719.34
2023-08-05T01:32:49.211Z,100711.31
2023-08-05T01:35:18.122Z,100697.91
2023-08-05T01:37:44.554Z,100689.03
2023-08-05T01:40:11.984Z,100670.28
2023-08-05T01:42:39.906Z,100650.69
2023-08-05T01:45:07.553Z,100651.63
2023-08-05T01:47:34.235Z,100648.00
2023-08-05T01:50:00.873Z,100645.19
2023-08-05T01:52:27.338Z,100648.00
2023-08-05T01:54:53.804Z,100641.66
2023-08-05T01:57:20.285Z,100638.16
2023-08-05T01:59:48.142Z,100636.31
2023-08-05T02:02:14.671Z,100637.28
2023-08-05T02:04:41.147Z,100619.41
2023-08-05T02:07:07.593Z,100606.84
2023-08-05T02:09:34.087Z,100612.22
2023-08-05T02:12:00.519Z,100599.78
2023-08-05T02:14:27.016Z,100595.28
2023-08-05T02:16:54.900Z,100594.31
2023-08-05T02:19:21.603Z,100581.91
2023-08-05T02:21:48.141Z,100552.44
2023-08-05T02:24:14.615Z,100556.81
2023-08-05T02:26:41.124Z,100564.00
2023-08-05T02:29:07.581Z,100570.19
2023-08-05T02:31:34.217Z,100560.34
2023-08-05T02:34:01.991Z,100556.94
2023-08-05T02:36:28.450Z,100569.34
2023-08-05T02:38:54.911Z,100566.66
2023-08-05T02:41:21.390Z,100571.03
2023-08-05T02:43:47.921Z,100547.19
2023-08-05T02:46:14.455Z,100547.06
2023-08-05T02:48:40.960Z,100532.84
2023-08-05T02:51:08.871Z,100518.47
2023-08-05T02:53:35.463Z,100515.78
2023-08-05T02:56:02.033Z,100513.09
2023-08-05T02:58:29.043Z,100493.50
2023-08-05T03:00:55.548Z,100489.97
2023-08-05T03:03:22.031Z,100504.22
2023-08-05T03:05:48.503Z,100509.56
2023-08-05T03:08:16.394Z,100520.28
2023-08-05T03:10:42.877Z,100520.28
2023-08-05T03:13:09.464Z,100515.78
2023-08-05T03:15:35.903Z,100520.28
2023-08-05T03:18:02.561Z,100506.91
2023-08-05T03:20:30.499Z,100505.06
2023-08-05T03:22:58.140Z,100489.00
2023-08-05T03:25:27.200Z,100489.84
2023-08-05T03:27:53.766Z,100477.44
2023-08-05T03:30:20.698Z,100469.25
2023-08-05T03:32:48.147Z,100466.59
2023-08-05T03:35:15.028Z,100455.16
2023-08-05T03:37:41.681Z,100453.34
2023-08-05T03:40:08.984Z,100453.34
2023-08-05T03:42:36.801Z,100450.66
2023-08-05T03:45:03.698Z,100451.50
2023-08-05T03:47:30.265Z,100454.31
2023-08-05T03:49:56.929Z,100445.28
2023-08-05T03:52:23.438Z,100449.81
2023-08-05T03:54:50.043Z,100450.66
2023-08-05T03:57:16.603Z,100444.44
2023-08-05T03:59:44.410Z,100436.41
2023-08-05T04:02:10.886Z,100435.56
2023-08-05T04:04:37.339Z,100432.88
2023-08-05T04:07:04.121Z,100430.22
2023-08-05T04:09:30.579Z,100429.22
2023-08-05T04:11:57.055Z,100429.22
2023-08-05T04:14:23.621Z,100429.34
2023-08-05T04:16:51.613Z,100433.75
2023-08-05T04:19:18.377Z,100431.06
2023-08-05T04:21:44.855Z,100436.53
2023-08-05T04:24:11.378Z,100431.06
2023-08-05T04:26:38.010Z,100431.06
2023-08-05T04:29:04.701Z,100432.88
2023-08-05T04:31:31.216Z,100422.19
2023-08-05T04:33:59.053Z,100423.13
2023-08-05T04:36:25.548Z,100426.66
2023-08-05T04:38:52.018Z,100428.50
2023-08-05T04:41:18.466Z,100427.63
2023-08-05T04:43:44.921Z,100415.94
2023-08-05T04:46:11.427Z,100414.25
2023-08-05T04:48:37.900Z,100412.41
2023-08-05T04:51:05.660Z,100408.88
2023-08-05T04:53:32.139Z,100401.84
2023-08-05T04:55:58.620Z,100395.50
2023-08-05T04:58:25.186Z,100392.81
2023-08-05T05:00:56.521Z,100372.25
2023-08-05T05:03:23.498Z,100364.34
2023-08-05T05:05:50.157Z,100354.47
2023-08-05T05:08:17.905Z,100353.63
2023-08-05T05:10:45.585Z,100352.66
2023-08-05T05:13:12.083Z,100351.81
2023-08-05T05:15:38.575Z,100351.81
2023-08-05T05:18:05.246Z,100344.63
2023-08-05T05:20:31.736Z,100337.44
2023-08-05T05:22:58.184Z,100331.22
2023-08-05T05:25:26.390Z,100325.03
2023-08-05T05:27:52.855Z,100322.34
2023-08-05T05:30:19.624Z,100310.78
2023-08-05T05:32:46.361Z,100304.59
2023-08-05T05:35:12.856Z,100305.44
2023-08-05T05:37:39.339Z,100312.47
2023-08-05T05:40:06.652Z,100322.34
2023-08-05T05:42:34.414Z,100300.91
2023-08-05T05:45:00.922Z,100286.69
2023-08-05T05:47:27.390Z,100277.81
2023-08-05T05:49:53.861Z,100269.78
2023-08-05T05:52:20.329Z,100272.31
2023-08-05T05:54:46.744Z,100267.94
2023-08-05T05:57:13.216Z,100264.28
2023-08-05T05:59:41.011Z,100260.75
2023-08-05T06:02:07.762Z,100247.34
2023-08-05T06:04:34.582Z,100247.34
2023-08-05T06:07:01.118Z,100249.19
2023-08-05T06:09:27.588Z,100250.88
2023-08-05T06:11:54.136Z,100233.97
2023-08-05T06:14:21.426Z,100240.16
2023-08-05T06:16:49.472Z,100230.44
2023-08-05T06:19:16.375Z,100225.09
2023-08-05T06:21:42.884Z,100225.94
2023-08-05T06:24:09.382Z,100223.25
2023-08-05T06:26:35.932Z,100207.31
2023-08-05T06:29:02.397Z,100210.00
2023-08-05T06:31:28.848Z,100205.59
2023-08-05T06:33:56.733Z,100204.66
2023-08-05T06:36:23.523Z,100203.66
2023-08-05T06:38:50.063Z,100201.97
2023-08-05T06:41:16.555Z,100212.69
2023-08-05T06:43:43.019Z,100210.00
2023-08-05T06:46:09.506Z,100202.81
2023-08-05T06:48:36.300Z,100201.97
2023-08-05T06:51:04.127Z,100197.56
2023-08-05T06:53:30.596Z,100193.94
2023-08-05T06:56:04.785Z,100186.75
2023-08-05T06:58:31.313Z,100184.06
2023-08-05T07:00:57.773Z,100177.72
2023-08-05T07:03:24.347Z,100176.03
2023-08-05T07:05:55.003Z,100170.78
2023-08-05T07:08:22.926Z,100175.19
2023-08-05T07:10:54.195Z,100173.34
2023-08-05T07:13:20.658Z,100169.84
2023-08-05T07:15:47.148Z,100164.47
2023-08-05T07:18:13.592Z,100159.13
2023-08-05T07:20:40.758Z,100161.81
2023-08-05T07:23:07.254Z,100160.81
2023-08-05T07:25:35.062Z,100154.72
2023-08-05T07:28:01.519Z,100154.72
2023-08-05T07:30:28.000Z,100148.41
2023-08-05T07:32:54.525Z,100135.97
2023-08-05T07:35:21.055Z,100129.78
2023-08-05T07:37:47.609Z,100129.78
2023-08-05T07:40:14.154Z,100117.25
2023-08-05T07:42:42.316Z,100102.16
2023-08-05T07:45:09.373Z,100097.66
2023-08-05T07:47:35.952Z,100097.53
2023-08-05T07:50:02.515Z,100085.09
2023-08-05T07:52:28.972Z,100085.94
2023-08-05T07:54:55.481Z,100079.63
2023-08-05T07:57:22.052Z,100066.34
2023-08-05T07:59:49.797Z,100057.38
2023-08-05T08:02:16.231Z,100048.44
2023-08-05T08:04:42.685Z,100035.06
2023-08-05T08:07:09.181Z,100020.00
2023-08-05T08:09:35.738Z,100004.75
2023-08-05T08:12:02.314Z,99993.09
2023-08-05T08:14:28.784Z,99991.38
2023-08-05T08:16:56.530Z,99991.38
2023-08-05T08:19:23.096Z,99970.78
2023-08-05T08:21:50.034Z,99964.59
2023-08-05T08:24:16.763Z,99969.94
2023-08-05T08:26:43.247Z,99979.69
2023-08-05T08:29:09.710Z,99988.59
2023-08-05T08:31:36.264Z,99985.91
2023-08-05T08:34:04.112Z,99978.72
2023-08-05T08:36:30.534Z,99994.78
2023-08-05T08:38:57.012Z,99989.44
2023-08-05T08:41:25.510Z,99993.94
2023-08-05T08:43:52.497Z,99996.63
2023-08-05T08:46:21.067Z,99993.94
2023-08-05T08:48:48.160Z,99999.28
2023-08-05T08:51:18.211Z,99989.44
2023-08-05T08:53:47.846Z,99984.06
2023-08-05T08:56:14.443Z,99982.38
2023-08-05T08:58:40.915Z,99977.88
2023-08-05T09:01:08.170Z,99978.72
2023-08-05T09:03:35.786Z,99980.53
2023-08-05T09:06:02.333Z,99976.03
2023-08-05T09:08:30.633Z,99958.28
2023-08-05T09:10:57.184Z,99951.94
2023-08-05T09:13:23.820Z,99943.91
2023-08-05T09:15:50.433Z,99938.53
2023-08-05T09:18:16.929Z,99931.34
2023-08-05T09:20:43.386Z,99928.69
2023-08-05T09:23:11.168Z,99930.50
2023-08-05T09:25:42.015Z,99928.81
2023-08-05T09:28:09.050Z,99918.13
2023-08-05T09:30:35.618Z,99928.69
2023-08-05T09:33:02.329Z,99916.97
2023-08-05T09:35:28.986Z,99902.88
2023-08-05T09:37:55.709Z,99903.72
2023-08-05T09:40:25.626Z,99896.53
2023-08-05T09:42:54.791Z,99893.88
2023-08-05T09:45:23.182Z,99878.63
2023-08-05T09:47:49.761Z,99866.09
2023-08-05T09:50:18.455Z,99854.53
2023-08-05T09:52:45.443Z,99836.63
2023-08-05T09:55:14.436Z,99833.97
2023-08-05T09:57:41.487Z,99835.66
2023-08-05T10:00:11.175Z,99825.94
2023-08-05T10:02:38.024Z,99833.84
2023-08-05T10:05:05.992Z,99827.63
2023-08-05T10:07:32.566Z,99817.78
2023-08-05T10:09:59.168Z,99813.25
2023-08-05T10:12:27.148Z,99814.09
2023-08-05T10:14:56.477Z,99808.75
2023-08-05T10:17:25.681Z,99796.34
2023-08-05T10:19:53.199Z,99795.34
2023-08-05T10:22:22.294Z,99789.00
2023-08-05T10:24:50.657Z,99789.00
2023-08-05T10:27:17.170Z,99786.31
2023-08-05T10:29:52.460Z,99774.66
2023-08-05T10:32:28.931Z,99779.13
2023-08-05T10:35:20.213Z,99775.47
2023-08-05T10:37:48.504Z,99760.38
2023-08-05T10:40:38.697Z,99754.06
2023-08-05T10:43:05.471Z,99755.75
2023-08-05T10:45:33.032Z,99749.53
2023-08-05T10:48:01.015Z,99738.84
2023-08-05T10:50:35.914Z,99743.19
2023-08-05T10:53:05.527Z,99736.16
2023-08-05T10:55:31.994Z,99729.81
2023-08-05T10:57:59.694Z,99720.81
2023-08-05T11:00:26.259Z,99722.63
2023-08-05T11:03:12.559Z,99713.63
2023-08-05T11:05:40.802Z,99703.88
2023-08-05T11:08:08.300Z,99708.25
2023-08-05T11:10:36.364Z,99702.91
2023-08-05T11:13:03.276Z,99720.66
2023-08-05T11:15:29.834Z,99707.25
2023-08-05T11:17:56.485Z,99712.63
2023-08-05T11:20:31.562Z,99715.28
2023-08-05T11:23:00.469Z,99709.09
2023-08-05T11:25:26.977Z,99702.91
2023-08-05T11:27:53.635Z,99707.25
2023-08-05T11:30:21.265Z,99699.06
2023-08-05T11:32:50.396Z,99693.72
2023-08-05T11:35:17.152Z,99684.00
2023-08-05T11:37:43.682Z,99692.88
2023-08-05T11:40:12.329Z,99691.03
2023-08-05T11:42:38.882Z,99680.19
2023-08-05T11:45:06.165Z,99687.50
2023-08-05T11:47:36.849Z,99698.94
2023-08-05T11:50:03.751Z,99693.72
2023-08-05T11:52:30.453Z,99692.75
2023-08-05T11:54:57.680Z,99699.78
2023-08-05T11:57:26.150Z,99683.72
2023-08-05T11:59:53.555Z,99676.69
2023-08-05T12:02:20.312Z,99672.00
2023-08-05T12:04:47.979Z,99670.31
2023-08-05T12:07:15.716Z,99660.44
2023-08-05T12:09:42.609Z,99677.34
2023-08-05T12:12:14.445Z,99708.66
2023-08-05T12:14:42.216Z,99701.63
2023-08-05T12:17:08.722Z,99700.78
2023-08-05T12:19:35.206Z,99687.50
2023-08-05T12:22:01.654Z,99690.91
2023-08-05T12:24:28.261Z,99694.44
2023-08-05T12:26:54.946Z,99701.63
2023-08-05T12:29:21.458Z,99701.63
2023-08-05T12:31:49.382Z,99691.75
2023-08-05T12:34:15.906Z,99684.72
2023-08-05T12:36:42.684Z,99683.72
2023-08-05T12:39:09.137Z,99682.03
2023-08-05T12:41:35.768Z,99681.03
2023-08-05T12:44:02.244Z,99689.06
2023-08-05T12:46:28.773Z,99692.59
2023-08-05T12:48:56.572Z,99704.16
2023-08-05T12:51:23.037Z,99694.44
2023-08-05T12:53:49.542Z,99693.59
2023-08-05T12:56:16.108Z,99689.22
2023-08-05T12:58:42.671Z,99690.06
2023-08-05T13:01:09.176Z,99699.06
2023-08-05T13:03:35.777Z,99699.06
2023-08-05T13:06:03.698Z,99700.78
2023-08-05T13:08:30.263Z,99686.69
2023-08-05T13:10:56.754Z,99685.69
2023-08-05T13:13:23.226Z,99683.00
2023-08-05T13:15:49.738Z,99673.28
2023-08-05T13:18:16.188Z,99675.97
2023-08-05T13:20:42.644Z,99687.50
2023-08-05T13:23:10.497Z,99692.75
2023-08-05T13:25:36.958Z,99691.91
2023-08-05T13:28:03.692Z,99690.91
2023-08-05T13:30:30.216Z,99697.09
2023-08-05T13:32:56.761Z,99698.94
2023-08-05T13:35:23.252Z,99688.34
2023-08-05T13:37:49.679Z,99711.50
2023-08-05T13:40:18.595Z,99699.06
2023-08-05T13:42:46.232Z,99714.28
2023-08-05T13:45:12.774Z,99708.09
2023-08-05T13:47:39.350Z,99686.69
2023-08-05T13:50:06.707Z,99701.06
2023-08-05T13:52:33.146Z,99680.47
2023-08-05T13:54:59.721Z,99689.50
2023-08-05T13:57:27.478Z,99697.38
2023-08-05T13:59:54.053Z,99686.69
2023-08-05T14:02:20.583Z,99694.03
2023-08-05T14:04:47.068Z,99691.34
2023-08-05T14:07:13.480Z,99701.91
2023-08-05T14:09:39.915Z,99701.75
2023-08-05T14:12:06.739Z,99695.72
2023-08-05T14:14:34.543Z,99698.22
2023-08-05T14:17:00.976Z,99697.38
2023-08-05T14:19:27.416Z,99692.88
2023-08-05T14:21:54.058Z,99703.75
2023-08-05T14:24:20.532Z,99685.84
2023-08-05T14:26:47.022Z,99697.38
2023-08-05T14:29:13.580Z,99689.50
2023-08-05T14:31:41.543Z,99718.13
2023-08-05T14:34:08.136Z,99697.81
2023-08-05T14:36:34.657Z,99701.34
2023-08-05T14:39:04.279Z,99708.38
2023-08-05T14:41:31.954Z,99714.72
2023-08-05T14:43:58.448Z,99718.25
2023-08-05T14:46:24.997Z,99716.56
2023-08-05T14:48:52.798Z,99727.41
2023-08-05T14:51:19.234Z,99729.53
2023-08-05T14:53:45.688Z,99716.97
2023-08-05T14:56:12.196Z,99719.53
2023-08-05T14:58:38.635Z,99715.16
2023-08-05T15:01:05.532Z,99724.03
2023-08-05T15:03:32.281Z,99715.28
2023-08-05T15:06:00.263Z,99718.81
2023-08-05T15:08:26.719Z,99718.69
2023-08-05T15:11:00.752Z,99719.38
2023-08-05T15:13:27.335Z,99729.41
2023-08-05T15:15:53.878Z,99726.72
2023-08-05T15:18:20.435Z,99718.81
2023-08-05T15:20:46.891Z,99711.63
2023-08-05T15:23:27.713Z,99715.28
2023-08-05T15:25:56.793Z,99700.22
2023-08-05T15:28:23.295Z,99717.28
2023-08-05T15:30:49.797Z,99729.94
2023-08-05T15:33:16.267Z,99720.81
2023-08-05T15:35:43.326Z,99722.63
2023-08-05T15:38:09.915Z,99726.28
2023-08-05T15:40:37.652Z,99717.28
2023-08-05T15:43:04.087Z,99709.38
2023-08-05T15:45:30.636Z,99744.06
2023-08-05T15:47:57.189Z,99730.78
2023-08-05T15:50:23.792Z,99734.31
2023-08-05T15:52:51.023Z,99736.31
2023-08-05T15:55:18.113Z,99730.94
2023-08-05T15:57:47.384Z,99742.50
2023-08-05T16:00:14.337Z,99747.00
2023-08-05T16:02:40.796Z,99749.69
2023-08-05T16:05:07.710Z,99741.22
2023-08-05T16:07:36.662Z,99738.41
2023-08-05T16:10:04.221Z,99739.38
2023-08-05T16:12:30.703Z,99735.88
2023-08-05T16:14:58.627Z,99735.03
2023-08-05T16:17:25.296Z,99749.25
2023-08-05T16:19:54.232Z,99744.75
2023-08-05T16:22:20.692Z,99771.50
2023-08-05T16:24:47.168Z,99751.38
2023-08-05T16:27:13.942Z,99756.88
2023-08-05T16:29:40.407Z,99764.19
2023-08-05T16:32:08.711Z,99778.28
2023-08-05T16:34:35.234Z,99772.09
2023-08-05T16:37:01.763Z,99766.84
2023-08-05T16:39:28.319Z,99774.06
2023-08-05T16:41:57.078Z,99772.22
2023-08-05T16:44:24.038Z,99790.13
2023-08-05T16:46:50.524Z,99780.50
2023-08-05T16:49:18.296Z,99778.84
2023-08-05T16:51:44.792Z,99774.47
2023-08-05T16:54:11.303Z,99782.50
2023-08-05T16:56:37.800Z,99787.09
2023-08-05T16:59:07.475Z,99778.09
2023-08-05T17:01:34.397Z,99794.06
2023-08-05T17:04:00.939Z,99798.56
2023-08-05T17:06:28.774Z,99798.56
2023-08-05T17:08:55.232Z,99799.41
2023-08-05T17:11:21.786Z,99796.81
2023-08-05T17:13:48.316Z,99813.88
2023-08-05T17:16:14.787Z,99801.47
2023-08-05T17:18:41.290Z,99796.13
2023-08-05T17:21:07.709Z,99805.00
2023-08-05T17:23:35.491Z,99810.50
2023-08-05T17:26:01.969Z,99800.66
2023-08-05T17:28:28.428Z,99819.38
2023-08-05T17:30:54.937Z,99826.41
2023-08-05T17:33:21.439Z,99821.06
2023-08-05T17:35:51.275Z,99830.09
2023-08-05T17:38:17.745Z,99826.41
2023-08-05T17:40:45.533Z,99832.88
2023-08-05T17:43:12.144Z,99837.41
2023-08-05T17:45:38.670Z,99832.03
2023-08-05T17:48:05.233Z,99840.22
2023-08-05T17:50:31.844Z,99840.22
2023-08-05T17:53:00.675Z,99849.09
2023-08-05T17:55:32.167Z,99840.22
2023-08-05T17:58:00.017Z,99833.72
2023-08-05T18:00:26.545Z,99843.59
2023-08-05T18:02:53.047Z,99855.28
2023-08-05T18:05:19.787Z,99855.13
2023-08-05T18:07:46.267Z,99863.31
2023-08-05T18:10:12.746Z,99868.66
2023-08-05T18:12:39.248Z,99882.91
2023-08-05T18:15:07.953Z,99865.28
2023-08-05T18:17:34.524Z,99870.63
2023-08-05T18:20:01.024Z,99875.97
2023-08-05T18:22:27.481Z,99877.69
2023-08-05T18:24:53.955Z,99880.50
2023-08-05T18:27:20.429Z,99890.34
2023-08-05T18:29:46.878Z,99883.16
2023-08-05T18:32:14.695Z,99887.81
2023-08-05T18:34:41.197Z,99886.97
2023-08-05T18:37:07.694Z,99883.31
2023-08-05T18:39:35.021Z,99895.00
2023-08-05T18:42:01.686Z,99887.94
2023-08-05T18:44:28.144Z,99893.28
2023-08-05T18:46:54.733Z,99890.63
2023-08-05T18:49:22.588Z,99899.63
2023-08-05T18:51:49.088Z,99904.84
2023-08-05T18:54:15.706Z,99907.53
2023-08-05T18:56:42.151Z,99911.19
2023-08-05T18:59:08.759Z,99904.16
2023-08-05T19:01:35.514Z,99926.41
2023-08-05T19:04:02.017Z,99910.34
2023-08-05T19:06:29.894Z,99921.06
2023-08-05T19:08:56.365Z,99926.41
2023-08-05T19:11:22.849Z,99921.19
2023-08-05T19:13:49.386Z,99931.03
2023-08-05T19:16:16.124Z,99932.59
2023-08-05T19:18:42.722Z,99953.16
2023-08-05T19:21:09.401Z,99951.59
2023-08-05T19:23:37.268Z,99955.25
2023-08-05T19:26:05.782Z,99962.19
2023-08-05T19:28:32.869Z,99978.25
2023-08-05T19:31:04.986Z,99981.03
2023-08-05T19:33:31.537Z,99969.50
2023-08-05T19:36:07.704Z,99976.81
2023-08-05T19:38:34.176Z,99987.53
2023-08-05T19:41:01.951Z,100000.03
2023-08-05T19:43:29.097Z,99987.53
2023-08-05T19:46:03.435Z,99992.88
2023-08-05T19:48:29.892Z,99996.25
2023-08-05T19:51:10.807Z,100020.34
2023-08-05T19:53:39.770Z,100020.47
2023-08-05T19:56:07.529Z,100030.19
2023-08-05T19:58:35.365Z,100025.00
2023-08-05T20:01:03.454Z,100032.03
2023-08-05T20:03:31.562Z,100046.25
2023-08-05T20:05:58.163Z,100048.94
2023-08-05T20:08:24.642Z,100062.31
2023-08-05T20:10:51.104Z,100081.19
2023-08-05T20:13:18.921Z,100085.81
2023-08-05T20:15:45.474Z,100084.97
2023-08-05T20:18:12.041Z,100089.47
2023-08-05T20:20:38.716Z,100096.53
2023-08-05T20:23:05.312Z,100093.84
2023-08-05T20:25:31.837Z,100105.53
2023-08-05T20:27:58.326Z,100111.72
2023-08-05T20:30:26.252Z,100109.91
2023-08-05T20:32:52.812Z,100115.25
2023-08-05T20:35:19.345Z,100115.09
2023-08-05T20:37:45.778Z,100112.44
2023-08-05T20:40:12.387Z,100120.47
2023-08-05T20:42:38.849Z,100127.66
2023-08-05T20:45:06.071Z,100126.81
2023-08-05T20:47:34.100Z,100144.94
2023-08-05T20:50:00.579Z,100149.31
2023-08-05T20:52:27.107Z,100146.63
2023-08-05T20:54:53.706Z,100151.13
2023-08-05T20:57:20.241Z,100146.63
2023-08-05T20:59:46.692Z,100153.81
2023-08-05T21:02:13.204Z,100161.72
2023-08-05T21:04:41.052Z,100161.72
2023-08-05T21:07:07.493Z,100164.41
2023-08-05T21:09:33.996Z,100160.88
2023-08-05T21:12:00.461Z,100169.75
2023-08-05T21:14:26.950Z,100168.78
2023-08-05T21:16:53.469Z,100174.97
2023-08-05T21:19:20.014Z,100182.16
2023-08-05T21:21:47.828Z,100181.31
2023-08-05T21:24:14.352Z,100185.69
2023-08-05T21:26:40.909Z,100186.78
2023-08-05T21:29:07.419Z,100191.16
2023-08-05T21:31:33.996Z,100195.69
2023-08-05T21:34:00.561Z,100193.97
2023-08-05T21:36:27.030Z,100195.94
2023-08-05T21:38:54.824Z,100207.47
2023-08-05T21:41:21.280Z,100202.13
2023-08-05T21:43:48.085Z,100205.50
2023-08-05T21:46:14.626Z,100207.47
2023-08-05T21:48:41.059Z,100211.00
2023-08-05T21:51:07.835Z,100212.84
2023-08-05T21:53:34.329Z,100218.03
2023-08-05T21:56:02.108Z,100215.25
2023-08-05T21:58:28.707Z,100222.44
2023-08-05T22:00:55.210Z,100225.97
2023-08-05T22:03:21.815Z,100223.28
2023-08-05T22:05:48.425Z,100231.31
2023-08-05T22:08:14.891Z,100230.47
2023-08-05T22:10:41.364Z,100246.63
2023-08-05T22:13:09.179Z,100248.31
2023-08-05T22:15:35.703Z,100252.84
2023-08-05T22:18:02.219Z,100264.38
2023-08-05T22:20:28.726Z,100259.03
2023-08-05T22:22:55.439Z,100259.91
2023-08-05T22:25:22.251Z,100258.19
2023-08-05T22:27:48.734Z,100267.06
2023-08-05T22:30:16.650Z,100258.19
2023-08-05T22:32:43.120Z,100266.22
2023-08-05T22:35:09.810Z,100278.66
2023-08-05T22:37:36.302Z,100275.09
2023-08-05T22:40:02.809Z,100284.09
2023-08-05T22:42:29.290Z,100276.91
2023-08-05T22:44:55.767Z,100280.72
2023-08-05T22:47:24.072Z,100289.47
2023-08-05T22:49:50.674Z,100294.09
2023-08-05T22:52:17.872Z,100301.25
2023-08-05T22:54:44.462Z,100304.91
2023-08-05T22:57:10.992Z,100304.91
2023-08-05T22:59:37.474Z,100299.44
2023-08-05T23:02:04.640Z,100316.34
2023-08-05T23:04:32.511Z,100314.53
2023-08-05T23:06:58.972Z,100316.47
2023-08-05T23:09:25.411Z,100325.34
2023-08-05T23:11:51.947Z,100321.81
2023-08-05T23:14:18.424Z,100318.19
2023-08-05T23:16:44.874Z,100327.06
2023-08-05T23:19:11.364Z,100324.50
2023-08-05T23:21:39.633Z,100328.88
2023-08-05T23:24:06.341Z,100332.41
2023-08-05T23:26:32.898Z,100333.25
2023-08-05T23:28:59.484Z,100335.94
2023-08-05T23:31:26.151Z,100330.59
2023-08-05T23:33:52.803Z,100338.63
2023-08-05T23:36:19.242Z,100334.94
2023-08-05T23:38:47.009Z,100330.59
2023-08-05T23:41:13.566Z,100329.72
2023-08-05T23:43:40.383Z,100331.44
2023-08-05T23:46:06.878Z,100336.78
2023-08-05T23:48:33.393Z,100339.47
2023-08-05T23:50:59.865Z,100345.78
2023-08-05T23:53:26.340Z,100345.78
2023-08-05T23:55:54.343Z,100344.94
2023-08-05T23:58:20.980Z,100339.59
